Time;durP1;ratioP1;P1;durP2;ratioP2;P2;SDS_P1;SDS_P2;PMS_P1;PMS_P2;Temp;Humidity;BMP_temperature;BMP_pressure;BME280_temperature;BME280_humidity;BME280_pressure;Samples;Min_cycle;Max_cycle;Signal;HPM_P1;HPM_P2
2022/03/20 00:01:54;;;;;;;5.32;2.15;;;3.10;99.90;;;;;;6245219;23;20094;-86
2022/03/20 00:04:19;;;;;;;5.18;2.55;;;4.50;99.90;;;;;;6218375;23;20074;-87
2022/03/20 00:06:45;;;;;;;5.65;2.42;;;4.30;99.90;;;;;;6218655;23;20016;-89
2022/03/20 00:09:11;;;;;;;4.50;2.63;;;3.40;99.90;;;;;;6218036;22;20016;-89
2022/03/20 00:11:37;;;;;;;4.43;2.10;;;2.90;99.90;;;;;;6218222;23;20074;-89
2022/03/20 00:14:06;;;;;;;6.63;2.50;;;3.50;99.90;;;;;;6245638;23;20442;-89
2022/03/20 00:16:32;;;;;;;4.85;2.05;;;3.30;99.90;;;;;;6217838;23;20081;-89
2022/03/20 00:18:58;;;;;;;4.85;2.33;;;2.20;99.90;;;;;;6243772;23;20016;-89
2022/03/20 00:21:24;;;;;;;3.83;2.50;;;4.50;99.90;;;;;;6202022;23;20482;-89
2022/03/20 00:23:49;;;;;;;4.82;1.83;;;4.00;99.90;;;;;;6213089;23;20103;-89
2022/03/20 00:26:18;;;;;;;4.60;2.55;;;3.20;99.90;;;;;;6217946;23;20027;-89
2022/03/20 00:28:44;;;;;;;5.68;2.30;;;3.50;99.90;;;;;;6245444;23;20012;-86
2022/03/20 00:31:10;;;;;;;6.90;2.85;;;2.60;99.90;;;;;;6245053;23;20342;-88
2022/03/20 00:33:36;;;;;;;4.93;2.28;;;3.30;99.90;;;;;;6245807;23;20012;-89
2022/03/20 00:36:05;;;;;;;5.30;3.15;;;3.20;99.90;;;;;;6219167;23;20030;-87
2022/03/20 00:38:30;;;;;;;5.65;2.35;;;3.30;99.90;;;;;;6216182;23;20013;-89
2022/03/20 00:40:56;;;;;;;8.88;3.05;;;2.90;99.90;;;;;;6219683;23;20023;-89
2022/03/20 00:43:22;;;;;;;6.50;3.00;;;3.90;99.90;;;;;;6247517;23;20016;-88
2022/03/20 00:45:56;;;;;;;5.03;2.42;;;3.90;99.90;;;;;;6220530;23;20016;-88
2022/03/20 00:48:28;;;;;;;4.78;2.15;;;3.30;99.90;;;;;;6220542;23;20020;-87
2022/03/20 00:51:03;;;;;;;8.60;2.88;;;3.20;99.90;;;;;;6219686;23;20078;-89
2022/03/20 00:53:38;;;;;;;7.07;2.83;;;3.30;99.90;;;;;;6220210;23;20016;-88
2022/03/20 00:56:04;;;;;;;5.68;2.58;;;4.00;99.90;;;;;;6247395;23;20055;-88
2022/03/20 00:58:33;;;;;;;3.90;2.25;;;3.30;99.90;;;;;;6220170;23;20020;-88
2022/03/20 01:00:59;;;;;;;4.70;2.28;;;3.60;99.90;;;;;;6246825;23;20381;-88
2022/03/20 01:03:25;;;;;;;3.78;2.00;;;3.20;99.90;;;;;;6247076;23;20025;-88
2022/03/20 01:05:54;;;;;;;3.70;2.03;;;4.30;99.90;;;;;;6219839;23;20020;-88
2022/03/20 01:08:19;;;;;;;5.35;2.50;;;4.40;99.90;;;;;;6189555;23;20025;-88
2022/03/20 01:10:45;;;;;;;5.93;2.95;;;4.30;99.90;;;;;;6219947;23;20031;-88
2022/03/20 01:13:11;;;;;;;5.57;2.35;;;3.70;99.90;;;;;;6246632;23;20095;-88
2022/03/20 01:15:37;;;;;;;7.15;2.75;;;3.80;99.90;;;;;;6246880;23;20385;-87
2022/03/20 01:18:03;;;;;;;4.95;2.92;;;3.00;99.90;;;;;;6247212;23;20446;-88
2022/03/20 01:20:28;;;;;;;6.80;2.85;;;3.80;99.90;;;;;;6246745;23;20312;-87
2022/03/20 01:22:54;;;;;;;6.55;2.50;;;3.10;99.90;;;;;;6246714;23;20020;-88
2022/03/20 01:25:20;;;;;;;8.05;3.67;;;2.50;99.90;;;;;;6246447;23;20404;-88
2022/03/20 01:27:46;;;;;;;7.03;2.80;;;4.00;99.90;;;;;;6245480;23;20082;-88
2022/03/20 01:30:12;;;;;;;9.13;3.45;;;3.00;99.90;;;;;;6246384;23;20051;-88
2022/03/20 01:32:37;;;;;;;7.95;2.75;;;3.10;99.90;;;;;;6219759;23;20024;-88
2022/03/20 01:35:04;;;;;;;9.55;3.83;;;2.90;99.90;;;;;;6219536;23;20024;-88
2022/03/20 01:37:30;;;;;;;9.52;3.88;;;3.00;99.90;;;;;;6219575;23;20024;-88
2022/03/20 01:39:55;;;;;;;7.65;3.40;;;3.50;99.90;;;;;;6246755;23;20089;-88
2022/03/20 01:42:22;;;;;;;6.45;3.28;;;2.60;99.90;;;;;;6220014;23;20094;-87
2022/03/20 01:44:48;;;;;;;7.03;3.53;;;3.70;99.90;;;;;;6219749;23;20316;-87
2022/03/20 01:47:14;;;;;;;8.95;3.58;;;3.00;99.90;;;;;;6219434;23;20016;-89
2022/03/20 01:49:40;;;;;;;8.85;4.15;;;3.10;99.90;;;;;;6245692;22;20050;-88
2022/03/20 01:52:23;;;;;;;8.52;4.47;;;4.00;99.90;;;;;;6246675;23;20051;-87
2022/03/20 01:54:49;;;;;;;10.63;4.75;;;2.90;99.90;;;;;;6246378;23;20502;-86
2022/03/20 01:57:16;;;;;;;7.20;3.97;;;4.30;99.90;;;;;;6217882;23;20020;-88
2022/03/20 01:59:43;;;;;;;10.27;5.05;;;3.80;99.90;;;;;;6246029;23;20435;-87
2022/03/20 02:02:11;;;;;;;11.55;4.85;;;2.00;99.90;;;;;;6246196;23;20020;-88
2022/03/20 02:04:40;;;;;;;10.50;5.30;;;3.50;99.90;;;;;;6244212;23;20446;-87
2022/03/20 02:07:07;;;;;;;11.75;5.68;;;3.10;99.90;;;;;;6194907;23;20048;-88
2022/03/20 02:09:36;;;;;;;13.27;5.22;;;3.60;99.90;;;;;;6219114;22;20012;-88
2022/03/20 02:12:02;;;;;;;11.85;4.82;;;3.50;99.90;;;;;;6221032;23;20081;-88
2022/03/20 02:14:28;;;;;;;10.25;4.97;;;3.20;99.90;;;;;;6247171;23;20023;-87
2022/03/20 02:16:55;;;;;;;10.98;5.03;;;4.20;99.90;;;;;;6220854;23;20039;-88
2022/03/20 02:19:21;;;;;;;9.27;5.05;;;3.20;99.90;;;;;;6241879;23;20027;-88
2022/03/20 02:21:49;;;;;;;8.98;4.45;;;4.50;99.90;;;;;;6240587;23;20043;-87
2022/03/20 02:24:40;;;;;;;9.63;4.43;;;3.40;99.90;;;;;;6219227;23;20397;-86
2022/03/20 02:27:23;;;;;;;7.97;4.68;;;2.90;99.90;;;;;;6246343;23;20315;-88
2022/03/20 02:29:50;;;;;;;12.98;5.20;;;2.90;99.90;;;;;;6244821;23;20074;-86
2022/03/20 02:32:18;;;;;;;7.95;4.20;;;2.90;99.90;;;;;;6218920;23;20012;-87
2022/03/20 02:34:47;;;;;;;10.48;5.15;;;3.80;99.90;;;;;;6218743;23;20091;-87
2022/03/20 02:37:13;;;;;;;15.52;6.40;;;3.00;99.90;;;;;;6245740;23;20386;-87
2022/03/20 02:39:40;;;;;;;11.23;5.35;;;3.70;99.90;;;;;;6219140;23;20052;-88
2022/03/20 02:42:11;;;;;;;13.65;5.50;;;3.00;99.90;;;;;;6245765;23;20050;-87
2022/03/20 02:44:47;;;;;;;11.38;4.93;;;3.30;99.90;;;;;;6214353;23;20067;-87
2022/03/20 02:47:13;;;;;;;12.32;4.50;;;2.80;99.90;;;;;;6218681;23;20028;-87
2022/03/20 02:49:39;;;;;;;9.50;5.03;;;3.30;99.90;;;;;;6235577;23;20066;-87
2022/03/20 02:52:06;;;;;;;12.30;5.15;;;2.50;99.90;;;;;;6243454;23;20338;-87
2022/03/20 02:54:32;;;;;;;10.05;4.93;;;2.50;99.90;;;;;;6245830;23;20014;-87
2022/03/20 02:56:58;;;;;;;11.25;4.95;;;3.80;99.90;;;;;;6218734;23;20060;-88
2022/03/20 02:59:24;;;;;;;10.95;5.65;;;2.40;99.90;;;;;;6218513;23;20031;-88
2022/03/20 03:01:50;;;;;;;10.80;5.03;;;3.20;99.90;;;;;;6245386;23;20016;-86
2022/03/20 03:04:17;;;;;;;10.48;5.57;;;4.00;99.90;;;;;;6245622;23;20081;-87
2022/03/20 03:06:42;;;;;;;11.82;6.47;;;2.50;99.90;;;;;;6218853;23;20031;-88
2022/03/20 03:11:57;;;;;;;10.65;6.20;;;2.90;99.90;;;;;;6245022;22;20399;-88
2022/03/20 03:17:10;;;;;;;10.90;6.30;;;2.80;99.90;;;;;;6245668;23;20024;-85
2022/03/20 03:19:38;;;;;;;17.08;7.28;;;2.40;99.90;;;;;;6235606;23;20396;-87
2022/03/20 03:22:04;;;;;;;12.23;6.57;;;1.60;99.90;;;;;;6242339;23;20447;-87
2022/03/20 03:24:33;;;;;;;21.40;6.68;;;2.90;99.90;;;;;;6245840;23;20098;-87
2022/03/20 03:27:01;;;;;;;12.52;6.50;;;2.50;99.90;;;;;;6245399;23;20031;-89
2022/03/20 03:29:29;;;;;;;13.68;7.00;;;3.20;99.90;;;;;;6244988;23;20019;-89
2022/03/20 03:31:55;;;;;;;16.90;8.27;;;2.60;99.90;;;;;;6193127;23;20042;-89
2022/03/20 03:37:05;;;;;;;16.80;8.45;;;3.40;99.90;;;;;;6243479;23;20530;-86
2022/03/20 03:39:31;;;;;;;15.65;7.80;;;2.90;99.90;;;;;;6218559;23;20051;-85
2022/03/20 03:42:03;;;;;;;16.52;7.82;;;4.00;99.90;;;;;;6218198;23;20017;-87
2022/03/20 03:44:29;;;;;;;15.35;7.15;;;2.70;99.90;;;;;;6244920;23;20016;-86
2022/03/20 03:46:57;;;;;;;17.80;7.70;;;3.20;99.90;;;;;;6245353;23;20024;-87
2022/03/20 03:49:23;;;;;;;15.02;8.10;;;3.90;99.90;;;;;;6213241;23;20055;-87
2022/03/20 03:51:49;;;;;;;15.55;7.30;;;1.70;99.90;;;;;;6218112;23;20051;-87
2022/03/20 03:54:15;;;;;;;12.15;7.50;;;2.70;99.90;;;;;;6218337;23;20016;-87
2022/03/20 03:56:41;;;;;;;12.27;6.72;;;2.40;99.90;;;;;;6245271;23;20098;-87
2022/03/20 03:59:07;;;;;;;15.13;6.65;;;1.90;99.90;;;;;;6218026;23;20016;-88
2022/03/20 04:01:33;;;;;;;14.98;7.05;;;2.80;99.90;;;;;;6218625;23;20027;-88
2022/03/20 04:03:59;;;;;;;14.80;8.02;;;2.20;99.90;;;;;;6218305;23;20008;-86
2022/03/20 04:06:24;;;;;;;16.02;7.70;;;3.10;99.90;;;;;;6218700;23;20105;-87
2022/03/20 04:08:50;;;;;;;13.30;7.50;;;2.30;99.90;;;;;;6245324;23;20062;-88
2022/03/20 04:11:16;;;;;;;15.57;7.20;;;2.30;99.90;;;;;;6217271;23;20027;-87
2022/03/20 04:13:42;;;;;;;15.70;7.70;;;2.40;99.90;;;;;;6245330;23;20028;-89
2022/03/20 04:16:08;;;;;;;15.02;7.50;;;2.20;99.90;;;;;;6218136;23;20338;-88
2022/03/20 04:18:33;;;;;;;15.13;7.70;;;2.20;99.90;;;;;;6245680;23;20104;-87
2022/03/20 04:20:59;;;;;;;20.27;8.68;;;2.10;99.90;;;;;;6232343;23;20500;-88
2022/03/20 04:26:09;;;;;;;12.93;7.80;;;2.20;99.90;;;;;;6243189;23;20103;-88
2022/03/20 04:28:35;;;;;;;14.40;7.30;;;2.20;99.90;;;;;;6218046;23;20105;-86
2022/03/20 04:31:00;;;;;;;15.27;7.80;;;2.60;99.90;;;;;;6245431;23;20013;-87
2022/03/20 04:33:27;;;;;;;13.65;7.55;;;1.80;99.90;;;;;;6244977;23;20008;-86
2022/03/20 04:35:53;;;;;;;14.60;7.55;;;2.10;99.90;;;;;;6217977;23;20075;-88
2022/03/20 04:38:21;;;;;;;19.25;8.20;;;3.40;99.90;;;;;;6244583;23;20024;-88
2022/03/20 04:40:48;;;;;;;15.98;8.13;;;0.80;99.90;;;;;;6243532;23;20074;-87
2022/03/20 04:43:15;;;;;;;16.30;8.70;;;1.80;99.90;;;;;;6244594;23;20524;-87
2022/03/20 04:45:40;;;;;;;20.83;8.75;;;3.00;99.90;;;;;;6245180;23;20038;-88
2022/03/20 04:59:06;;;;;;;17.23;8.85;;;2.00;99.90;;;;;;6217953;23;20097;-88
2022/03/20 05:01:37;;;;;;;16.92;9.10;;;2.50;99.90;;;;;;6243492;23;20056;-88
2022/03/20 05:04:03;;;;;;;19.58;10.65;;;2.90;99.90;;;;;;6243761;23;20022;-89
2022/03/20 05:06:29;;;;;;;22.00;8.95;;;3.30;99.90;;;;;;6245035;23;20020;-88
2022/03/20 05:13:19;;;;;;;18.92;10.30;;;2.20;99.90;;;;;;6244609;23;20008;-89
2022/03/20 05:14:25;;;;;;;19.63;9.70;;;2.30;99.90;;;;;;6217848;23;20051;-86
2022/03/20 05:16:52;;;;;;;18.27;11.10;;;2.30;99.90;;;;;;6244702;23;20020;-87
2022/03/20 05:19:19;;;;;;;21.80;10.30;;;2.30;99.90;;;;;;6239204;23;20042;-86
2022/03/20 05:21:46;;;;;;;16.35;8.68;;;3.20;99.90;;;;;;6187480;23;20021;-88
2022/03/20 05:24:13;;;;;;;21.42;10.68;;;2.20;99.90;;;;;;6217655;23;20020;-86
2022/03/20 05:26:41;;;;;;;22.92;10.57;;;2.40;99.90;;;;;;6219213;23;20020;-88
2022/03/20 05:29:09;;;;;;;18.85;10.25;;;2.60;99.90;;;;;;6219793;23;20016;-87
2022/03/20 05:31:53;;;;;;;20.23;9.50;;;2.50;99.90;;;;;;6245604;23;20023;-88
2022/03/20 05:34:23;;;;;;;19.88;9.68;;;2.40;99.90;;;;;;6219091;23;20024;-88
2022/03/20 05:36:49;;;;;;;20.73;10.98;;;2.40;99.90;;;;;;6219185;23;20024;-87
2022/03/20 05:39:15;;;;;;;17.40;9.77;;;2.40;99.90;;;;;;6245528;23;20319;-88
2022/03/20 05:41:48;;;;;;;21.85;10.23;;;3.70;99.90;;;;;;6219322;23;20016;-88
2022/03/20 05:44:18;;;;;;;18.00;10.27;;;3.30;99.90;;;;;;6219347;23;20020;-88
2022/03/20 05:46:51;;;;;;;21.50;9.82;;;2.00;99.90;;;;;;6219280;23;20016;-86
2022/03/20 05:49:18;;;;;;;20.45;9.80;;;3.00;99.90;;;;;;6176482;23;20016;-88
2022/03/20 05:51:46;;;;;;;16.30;8.68;;;2.40;99.90;;;;;;6189177;23;20086;-88
2022/03/20 05:54:12;;;;;;;21.25;9.75;;;3.50;99.90;;;;;;6217152;23;20079;-87
2022/03/20 05:59:22;;;;;;;23.02;10.82;;;2.20;99.90;;;;;;6218790;23;20122;-88
2022/03/20 06:01:50;;;;;;;19.17;11.00;;;2.80;99.90;;;;;;6246282;23;20087;-88
2022/03/20 06:04:17;;;;;;;17.83;10.10;;;2.20;99.90;;;;;;6219115;23;20024;-87
2022/03/20 06:06:43;;;;;;;21.83;11.15;;;3.00;99.90;;;;;;6246209;23;20342;-86
2022/03/20 06:09:09;;;;;;;19.10;10.38;;;2.70;99.90;;;;;;6217307;23;20332;-87
2022/03/20 06:11:35;;;;;;;20.17;9.98;;;2.20;99.90;;;;;;6246140;22;20016;-87
2022/03/20 06:14:03;;;;;;;21.90;11.52;;;2.20;99.90;;;;;;6218008;23;20050;-88
2022/03/20 06:16:35;;;;;;;21.60;10.30;;;3.70;99.90;;;;;;6219078;23;20016;-89
2022/03/20 06:19:01;;;;;;;22.90;10.63;;;3.70;99.90;;;;;;6217041;23;20043;-86
2022/03/20 06:21:30;;;;;;;19.98;9.90;;;2.40;99.90;;;;;;6188843;23;20020;-87
2022/03/20 06:23:58;;;;;;;21.75;10.65;;;3.20;99.90;;;;;;6209618;23;20099;-88
2022/03/20 06:26:27;;;;;;;18.42;9.60;;;3.00;99.90;;;;;;6219130;23;20334;-87
2022/03/20 06:28:53;;;;;;;20.80;10.57;;;2.40;99.90;;;;;;6219476;23;20110;-88
2022/03/20 06:31:22;;;;;;;23.50;11.05;;;2.20;99.90;;;;;;6245476;23;20051;-86
2022/03/20 06:33:54;;;;;;;17.63;10.70;;;2.60;99.90;;;;;;6193380;23;20020;-87
2022/03/20 06:36:22;;;;;;;17.95;9.93;;;3.30;99.90;;;;;;6218585;23;20026;-84
2022/03/20 06:38:48;;;;;;;20.48;11.85;;;2.70;99.90;;;;;;6245968;23;20435;-84
2022/03/20 06:41:16;;;;;;;21.23;10.38;;;2.80;99.90;;;;;;6245694;23;20073;-83
2022/03/20 06:43:55;;;;;;;19.48;10.30;;;2.50;99.90;;;;;;6237915;23;20374;-83
2022/03/20 06:46:37;;;;;;;21.67;11.05;;;3.10;99.90;;;;;;6245657;23;20055;-84
2022/03/20 06:49:41;;;;;;;21.20;10.38;;;2.90;99.90;;;;;;6216727;23;20277;-84
2022/03/20 07:00:16;;;;;;;20.63;11.07;;;3.20;99.90;;;;;;6094035;23;20067;-84
2022/03/20 07:03:18;;;;;;;21.50;11.10;;;3.00;99.90;;;;;;5986748;23;20016;-87
2022/03/20 07:10:08;;;;;;;19.98;11.25;;;3.30;99.90;;;;;;5869969;24;20033;-84
2022/03/20 07:12:42;;;;;;;23.88;11.23;;;4.10;99.90;;;;;;5873836;24;20036;-85
2022/03/20 07:15:11;;;;;;;23.40;10.25;;;3.50;99.90;;;;;;5896612;24;20044;-84
2022/03/20 07:17:59;;;;;;;22.75;11.20;;;3.50;99.90;;;;;;5874090;24;20025;-85
2022/03/20 07:20:36;;;;;;;21.80;10.85;;;3.60;99.90;;;;;;5894863;24;20037;-85
2022/03/20 07:29:55;;;;;;;20.92;10.68;;;3.30;99.90;;;;;;6233353;22;20048;-84
2022/03/20 07:32:24;;;;;;;23.10;11.18;;;3.50;99.90;;;;;;6216731;23;20056;-84
2022/03/20 07:34:53;;;;;;;24.48;12.30;;;5.00;99.90;;;;;;6218901;22;20117;-85
2022/03/20 07:37:33;;;;;;;;;;;;;;;;;;;;;
2022/03/20 07:40:35;;;;;;;;;;;;;;;;;;;;;
2022/03/20 07:43:33;;;;;;;22.15;10.95;;;3.60;99.90;;;;;;6273972;22;20019;-86
2022/03/20 07:47:03;;;;;;;19.85;10.55;;;4.20;99.90;;;;;;6306298;22;20057;-84
2022/03/20 07:49:49;;;;;;;20.70;10.07;;;4.20;99.90;;;;;;6292816;22;20090;-84
2022/03/20 07:52:36;;;;;;;21.98;11.27;;;3.70;99.90;;;;;;6228576;22;20433;-85
2022/03/20 08:00:11;;;;;;;19.27;10.73;;;3.70;99.90;;;;;;6244751;23;20054;-84
2022/03/20 08:03:00;;;;;;;22.45;10.75;;;4.30;99.90;;;;;;6245000;23;20101;-83
2022/03/20 08:05:43;;;;;;;19.98;10.05;;;4.30;99.90;;;;;;6244845;23;20056;-83
2022/03/20 08:15:39;;;;;;;19.77;11.32;;;4.50;99.90;;;;;;6228046;22;20493;-85
2022/03/20 08:18:07;;;;;;;21.92;10.77;;;4.70;99.90;;;;;;6139468;23;20067;-88
2022/03/20 08:20:34;;;;;;;19.38;10.95;;;5.60;99.90;;;;;;6211111;22;20028;-87
2022/03/20 08:23:11;;;;;;;18.52;11.15;;;5.10;99.90;;;;;;6158484;23;20017;-84
2022/03/20 08:25:42;;;;;;;17.95;10.45;;;4.40;99.90;;;;;;6157198;23;20021;-84
2022/03/20 08:28:09;;;;;;;21.42;10.77;;;6.00;99.90;;;;;;6184418;23;20132;-83
2022/03/20 08:30:44;;;;;;;20.63;10.68;;;6.00;99.90;;;;;;6153358;23;20064;-84
2022/03/20 08:33:19;;;;;;;18.67;11.02;;;5.40;99.90;;;;;;6157817;23;20017;-85
2022/03/20 08:35:48;;;;;;;21.45;12.07;;;6.60;99.90;;;;;;6157371;23;20025;-84
2022/03/20 08:38:17;;;;;;;21.98;11.00;;;5.20;99.90;;;;;;6158438;23;20023;-85
2022/03/20 08:40:45;;;;;;;19.13;10.90;;;6.30;99.90;;;;;;6158284;23;20068;-85
2022/03/20 08:43:21;;;;;;;22.80;11.80;;;6.80;99.90;;;;;;6184808;23;20092;-87
2022/03/20 08:46:05;;;;;;;23.25;11.40;;;5.60;99.90;;;;;;6184507;23;20013;-86
2022/03/20 08:48:35;;;;;;;21.40;11.95;;;7.00;99.90;;;;;;6184210;23;20038;-86
2022/03/20 08:51:10;;;;;;;26.80;12.35;;;5.80;99.90;;;;;;6182505;23;20079;-86
2022/03/20 08:57:59;;;;;;;22.98;11.48;;;6.20;99.90;;;;;;6184771;23;20083;-84
2022/03/20 09:00:29;;;;;;;22.25;10.90;;;6.00;99.90;;;;;;6159468;23;20460;-86
2022/03/20 09:02:57;;;;;;;22.88;11.77;;;6.80;99.90;;;;;;6185943;23;20029;-87
2022/03/20 09:05:29;;;;;;;23.17;11.10;;;7.30;99.90;;;;;;6184816;23;20448;-85
2022/03/20 09:07:57;;;;;;;20.80;11.63;;;6.30;99.90;;;;;;6159731;23;20109;-85
2022/03/20 09:10:38;;;;;;;21.40;11.70;;;7.40;99.90;;;;;;6158947;23;20024;-87
2022/03/20 09:13:03;;;;;;;22.42;12.60;;;7.10;99.90;;;;;;6160072;23;20017;-87
2022/03/20 09:15:33;;;;;;;19.17;11.43;;;7.00;99.90;;;;;;6184097;23;20456;-86
2022/03/20 09:20:56;;;;;;;22.67;12.57;;;6.50;99.90;;;;;;6159243;23;20053;-85
2022/03/20 09:23:28;;;;;;;23.58;12.50;;;6.60;99.90;;;;;;6159174;23;20017;-86
2022/03/20 09:26:03;;;;;;;22.33;12.70;;;6.70;99.90;;;;;;6159807;23;20043;-87
2022/03/20 09:28:37;;;;;;;27.45;14.07;;;6.60;99.90;;;;;;6160089;23;20028;-86
2022/03/20 09:31:07;;;;;;;24.42;12.02;;;6.80;99.90;;;;;;6186361;23;20016;-88
2022/03/20 09:33:35;;;;;;;25.83;12.50;;;7.10;99.90;;;;;;6159720;23;20029;-87
2022/03/20 09:36:01;;;;;;;22.08;12.95;;;7.10;99.90;;;;;;6185446;23;20017;-84
2022/03/20 09:38:31;;;;;;;22.73;12.80;;;7.00;99.90;;;;;;6174895;23;20511;-87
2022/03/20 09:41:03;;;;;;;20.45;11.98;;;7.00;99.90;;;;;;6156017;23;20073;-85
2022/03/20 09:43:45;;;;;;;19.95;12.15;;;8.10;99.90;;;;;;6186155;23;20024;-89
2022/03/20 09:49:59;;;;;;;25.17;12.35;;;7.50;99.90;;;;;;6294524;22;20026;-84
2022/03/20 09:53:27;;;;;;;22.50;12.88;;;7.50;99.90;;;;;;6305567;22;20024;-85
2022/03/20 09:59:49;;;;;;;23.50;13.35;;;7.80;99.90;;;;;;6123757;23;20040;-84
2022/03/20 10:02:18;;;;;;;23.60;13.15;;;8.00;99.90;;;;;;6098479;23;20456;-84
2022/03/20 10:04:58;;;;;;;26.15;14.10;;;8.10;99.90;;;;;;6094284;23;20019;-85
2022/03/20 10:10:44;;;;;;;27.58;13.82;;;7.60;99.90;;;;;;6059547;23;20102;-84
2022/03/20 10:13:16;;;;;;;23.30;12.85;;;8.50;99.90;;;;;;6040867;23;20019;-85
2022/03/20 10:16:12;;;;;;;;;;;;;;;;;;;;;
2022/03/20 10:19:36;;;;;;;23.25;14.13;;;8.70;99.90;;;;;;6016207;23;20452;-85
2022/03/20 10:23:09;;;;;;;25.85;14.05;;;9.70;99.40;;;;;;6009838;23;20024;-84
2022/03/20 10:37:23;;;;;;;25.38;13.77;;;9.10;98.80;;;;;;5897046;24;20036;-85
2022/03/20 10:41:04;;;;;;;25.95;13.80;;;9.30;98.90;;;;;;5897150;24;20097;-86
2022/03/20 10:43:42;;;;;;;25.95;14.20;;;8.70;97.10;;;;;;5898578;24;20061;-85
2022/03/20 10:47:04;;;;;;;22.85;13.80;;;9.50;97.50;;;;;;5896832;24;20493;-87
2022/03/20 10:49:32;;;;;;;27.00;14.55;;;9.50;95.80;;;;;;5854197;24;20026;-84
2022/03/20 10:52:24;;;;;;;24.85;12.82;;;9.50;95.60;;;;;;5842660;24;20079;-85
2022/03/20 10:54:53;;;;;;;27.35;14.57;;;9.80;95.70;;;;;;5818216;24;20016;-85
2022/03/20 10:57:41;;;;;;;26.58;13.57;;;9.80;95.90;;;;;;5843334;24;20026;-86
2022/03/20 11:03:32;;;;;;;24.48;14.40;;;10.00;94.70;;;;;;6033933;23;20026;-85
2022/03/20 11:06:22;;;;;;;29.48;14.43;;;10.10;94.20;;;;;;6093655;23;20097;-85
2022/03/20 11:08:51;;;;;;;24.80;14.02;;;10.20;94.00;;;;;;6093485;23;20026;-87
2022/03/20 11:12:39;;;;;;;27.80;14.30;;;10.10;93.30;;;;;;6090364;23;20018;-86
2022/03/20 11:15:32;;;;;;;25.63;13.63;;;10.40;93.20;;;;;;6061852;23;20018;-85
2022/03/20 11:18:52;;;;;;;27.92;13.45;;;10.30;92.70;;;;;;6064977;23;20097;-87
2022/03/20 11:21:31;;;;;;;23.33;13.50;;;10.30;92.60;;;;;;6064881;23;20388;-85
2022/03/20 11:24:05;;;;;;;25.58;15.32;;;10.40;92.70;;;;;;6040513;23;20078;-84
2022/03/20 11:26:40;;;;;;;23.77;13.80;;;10.50;91.40;;;;;;6060560;23;20014;-88
2022/03/20 11:29:31;;;;;;;26.50;16.20;;;10.20;92.00;;;;;;6098619;23;20475;-87
2022/03/20 11:31:59;;;;;;;23.13;13.50;;;10.60;93.30;;;;;;6098496;23;20384;-88
2022/03/20 11:34:25;;;;;;;23.30;13.15;;;10.60;91.60;;;;;;6098504;23;20050;-89
2022/03/20 11:37:12;;;;;;;25.42;14.50;;;10.70;91.70;;;;;;6098517;23;20033;-89
2022/03/20 11:39:59;;;;;;;29.70;14.93;;;10.80;90.30;;;;;;6149700;23;20416;-86
2022/03/20 11:42:29;;;;;;;25.13;13.95;;;11.00;91.20;;;;;;6239350;22;20050;-84
2022/03/20 11:45:00;;;;;;;24.30;13.63;;;10.90;91.70;;;;;;6275375;22;20020;-89
2022/03/20 11:47:29;;;;;;;22.13;13.98;;;10.90;91.70;;;;;;6307245;22;20022;-88
2022/03/20 11:50:13;;;;;;;23.75;14.32;;;11.30;91.40;;;;;;6306830;22;20011;-86
2022/03/20 11:53:01;;;;;;;24.83;14.55;;;11.20;91.30;;;;;;6306727;22;20026;-86
2022/03/20 11:55:38;;;;;;;25.77;14.15;;;11.20;90.40;;;;;;6306976;22;20019;-85
2022/03/20 11:58:24;;;;;;;23.33;13.07;;;11.20;86.30;;;;;;6307520;22;20022;-84
2022/03/20 12:01:03;;;;;;;25.75;14.10;;;11.30;89.00;;;;;;6307006;22;20019;-88
2022/03/20 12:03:37;;;;;;;27.73;14.23;;;11.40;87.70;;;;;;6305519;22;20034;-87
2022/03/20 12:06:41;;;;;;;25.10;14.73;;;11.50;90.10;;;;;;6307063;22;20015;-89
2022/03/20 12:09:07;;;;;;;24.13;13.35;;;11.60;87.10;;;;;;6307074;22;20022;-85
2022/03/20 12:12:11;;;;;;;23.85;13.63;;;11.70;88.10;;;;;;6306726;22;20392;-87
2022/03/20 12:14:39;;;;;;;25.33;14.05;;;11.90;89.00;;;;;;6157078;23;20418;-87
2022/03/20 12:17:07;;;;;;;25.90;14.73;;;11.90;83.40;;;;;;6157502;23;20420;-84
2022/03/20 12:19:44;;;;;;;26.15;15.20;;;12.00;85.20;;;;;;6157344;23;20034;-87
2022/03/20 12:22:36;;;;;;;24.95;14.07;;;12.00;84.00;;;;;;6157052;23;20017;-86
2022/03/20 12:25:04;;;;;;;25.35;14.05;;;11.50;83.50;;;;;;6125484;23;20021;-86
2022/03/20 12:27:30;;;;;;;26.65;14.23;;;11.90;80.40;;;;;;6176589;23;20017;-86
2022/03/20 12:30:07;;;;;;;26.00;13.75;;;11.80;82.40;;;;;;6157267;23;20032;-88
2022/03/20 12:32:55;;;;;;;22.70;12.75;;;11.80;82.70;;;;;;6182727;23;20352;-86
2022/03/20 12:35:27;;;;;;;25.75;13.30;;;11.80;83.10;;;;;;6184024;23;20017;-88
2022/03/20 12:37:55;;;;;;;26.48;14.38;;;12.20;84.00;;;;;;6183690;23;20351;-87
2022/03/20 12:40:25;;;;;;;25.70;13.55;;;11.80;83.70;;;;;;6183804;23;20021;-88
2022/03/20 12:43:13;;;;;;;23.00;12.43;;;11.80;83.80;;;;;;6183679;23;20083;-88
2022/03/20 12:45:42;;;;;;;20.60;12.10;;;11.70;79.80;;;;;;6183846;23;20016;-88
2022/03/20 12:48:14;;;;;;;25.85;14.77;;;11.70;81.80;;;;;;6159120;23;20021;-87
2022/03/20 12:50:43;;;;;;;23.42;13.27;;;11.90;80.10;;;;;;6189967;22;20013;-88
2022/03/20 12:53:15;;;;;;;24.33;13.05;;;12.00;82.20;;;;;;6278090;22;20020;-87
2022/03/20 12:55:47;;;;;;;20.48;12.90;;;12.20;80.70;;;;;;6277580;22;20377;-86
2022/03/20 12:58:15;;;;;;;22.33;13.55;;;12.20;77.70;;;;;;6250318;22;20525;-85
2022/03/20 13:00:42;;;;;;;27.35;13.82;;;12.20;76.40;;;;;;6277294;22;20011;-87
2022/03/20 13:03:12;;;;;;;23.58;13.60;;;12.40;75.50;;;;;;6250720;22;20016;-88
2022/03/20 13:05:52;;;;;;;21.33;13.27;;;12.50;77.20;;;;;;6250142;22;20019;-85
2022/03/20 13:08:18;;;;;;;23.55;13.77;;;12.60;76.10;;;;;;6250081;22;20043;-85
2022/03/20 13:10:44;;;;;;;19.75;12.18;;;12.70;75.70;;;;;;6249596;22;20020;-86
2022/03/20 13:13:12;;;;;;;24.48;13.38;;;12.80;75.30;;;;;;6277465;22;20011;-88
2022/03/20 13:15:40;;;;;;;21.67;13.10;;;13.00;75.00;;;;;;6277808;22;20019;-86
2022/03/20 13:18:07;;;;;;;22.70;13.40;;;13.00;74.20;;;;;;6278429;22;20381;-85
2022/03/20 13:20:41;;;;;;;22.95;12.98;;;12.90;73.70;;;;;;6277675;22;20099;-87
2022/03/20 13:23:16;;;;;;;22.60;13.05;;;12.80;72.60;;;;;;6277557;22;20353;-88
2022/03/20 13:25:48;;;;;;;23.42;12.70;;;12.90;74.80;;;;;;6275864;22;20094;-87
2022/03/20 13:28:28;;;;;;;25.05;13.70;;;12.90;75.40;;;;;;6250708;22;20077;-86
2022/03/20 13:31:03;;;;;;;23.33;13.48;;;12.80;71.90;;;;;;6277361;22;20016;-87
2022/03/20 13:33:51;;;;;;;22.25;12.82;;;12.60;70.60;;;;;;6277063;22;20031;-84
2022/03/20 13:36:26;;;;;;;23.30;12.88;;;12.50;73.60;;;;;;6277412;22;20094;-86
2022/03/20 13:38:55;;;;;;;22.13;13.38;;;12.80;76.10;;;;;;6249827;22;20019;-86
2022/03/20 13:41:24;;;;;;;24.08;12.77;;;12.00;74.30;;;;;;6253146;22;20016;-88
2022/03/20 13:44:04;;;;;;;22.77;13.27;;;12.00;76.10;;;;;;6275438;22;20462;-87
2022/03/20 13:46:34;;;;;;;22.08;12.75;;;12.00;75.20;;;;;;6275977;22;20020;-86
2022/03/20 13:49:03;;;;;;;25.20;13.90;;;12.00;75.40;;;;;;6276723;22;20022;-87
2022/03/20 13:51:30;;;;;;;22.88;12.73;;;12.10;74.80;;;;;;6275258;22;20016;-85
2022/03/20 13:54:19;;;;;;;25.13;13.43;;;12.30;76.60;;;;;;6275016;22;20030;-86
2022/03/20 13:56:48;;;;;;;24.00;13.23;;;12.50;77.20;;;;;;6277311;22;20504;-86
2022/03/20 13:59:16;;;;;;;19.42;11.38;;;12.70;76.00;;;;;;6277447;22;20091;-88
2022/03/20 14:01:46;;;;;;;22.00;12.45;;;12.80;74.10;;;;;;6275483;22;20034;-86
2022/03/20 14:04:35;;;;;;;23.67;12.63;;;12.90;74.10;;;;;;6276492;22;20331;-87
2022/03/20 14:07:23;;;;;;;22.23;12.30;;;12.90;75.70;;;;;;6277068;22;20020;-89
2022/03/20 14:09:51;;;;;;;21.75;13.15;;;13.00;73.40;;;;;;6275974;22;20011;-88
2022/03/20 14:12:35;;;;;;;22.95;12.63;;;13.20;72.70;;;;;;6274210;22;20019;-91
2022/03/20 14:15:39;;;;;;;21.13;10.73;;;12.90;72.30;;;;;;6276125;22;20460;-90
2022/03/20 14:18:12;;;;;;;19.05;11.93;;;13.00;72.70;;;;;;6248613;22;20423;-88
2022/03/20 14:20:38;;;;;;;20.15;11.88;;;13.00;72.50;;;;;;6276700;22;20012;-87
2022/03/20 14:23:19;;;;;;;20.85;11.88;;;12.90;72.80;;;;;;6275327;22;20054;-88
2022/03/20 14:28:23;;;;;;;18.80;11.65;;;12.60;72.90;;;;;;6210910;22;20025;-87
2022/03/20 14:39:44;;;;;;;23.50;12.60;;;12.60;75.40;;;;;;6215466;23;20022;-87
2022/03/20 14:42:27;;;;;;;25.27;13.55;;;12.40;75.70;;;;;;6215411;23;20018;-87
2022/03/20 14:44:53;;;;;;;19.90;12.43;;;12.30;74.70;;;;;;6214329;23;20332;-87
2022/03/20 14:47:20;;;;;;;18.65;11.68;;;12.40;73.90;;;;;;6215393;23;20023;-88
2022/03/20 14:49:50;;;;;;;20.08;12.05;;;12.90;75.90;;;;;;6215834;23;20017;-87
2022/03/20 14:52:17;;;;;;;22.52;11.95;;;12.40;75.50;;;;;;6214880;23;20374;-87
2022/03/20 14:54:43;;;;;;;19.77;12.30;;;12.50;76.10;;;;;;6188156;23;20091;-88
2022/03/20 14:57:09;;;;;;;22.15;11.50;;;12.40;75.60;;;;;;6214930;23;20016;-88